sensor_id;sensor_type;location;lat;lon;timestamp;temperature;humidity
37240;DHT22;23130;48.760;9.178;2022-07-29T00:01:46;17.80;99.90
37240;DHT22;23130;48.760;9.178;2022-07-29T00:04:12;17.80;99.90
37240;DHT22;23130;48.760;9.178;2022-07-29T00:06:38;17.80;99.90
37240;DHT22;23130;48.760;9.178;2022-07-29T00:09:03;17.80;99.90
37240;DHT22;23130;48.760;9.178;2022-07-29T00:11:29;17.70;99.90
37240;DHT22;23130;48.760;9.178;2022-07-29T00:13:55;17.80;99.90
37240;DHT22;23130;48.760;9.178;2022-07-29T00:16:20;17.80;99.90
37240;DHT22;23130;48.760;9.178;2022-07-29T00:18:46;17.80;99.90
37240;DHT22;23130;48.760;9.178;2022-07-29T00:21:11;17.70;99.90
37240;DHT22;23130;48.760;9.178;2022-07-29T00:23:37;17.80;99.90
37240;DHT22;23130;48.760;9.178;2022-07-29T00:26:02;17.80;99.90
37240;DHT22;23130;48.760;9.178;2022-07-29T00:28:28;17.80;99.90
37240;DHT22;23130;48.760;9.178;2022-07-29T00:30:54;17.70;99.90
37240;DHT22;23130;48.760;9.178;2022-07-29T00:33:19;17.70;99.90
37240;DHT22;23130;48.760;9.178;2022-07-29T00:35:45;17.70;99.90
37240;DHT22;23130;48.760;9.178;2022-07-29T00:38:16;17.70;99.90
37240;DHT22;23130;48.760;9.178;2022-07-29T00:40:43;17.60;99.90
37240;DHT22;23130;48.760;9.178;2022-07-29T00:43:10;17.60;99.90
37240;DHT22;23130;48.760;9.178;2022-07-29T00:45:35;17.60;99.90
37240;DHT22;23130;48.760;9.178;2022-07-29T00:48:02;17.60;99.90
37240;DHT22;23130;48.760;9.178;2022-07-29T00:50:28;17.50;99.90
37240;DHT22;23130;48.760;9.178;2022-07-29T00:52:54;17.50;99.90
37240;DHT22;23130;48.760;9.178;2022-07-29T00:55:20;17.50;99.90
37240;DHT22;23130;48.760;9.178;2022-07-29T00:57:46;17.50;99.90
37240;DHT22;23130;48.760;9.178;2022-07-29T01:00:18;17.50;99.90
37240;DHT22;23130;48.760;9.178;2022-07-29T01:02:45;17.60;99.90
37240;DHT22;23130;48.760;9.178;2022-07-29T01:05:14;17.60;99.90
37240;DHT22;23130;48.760;9.178;2022-07-29T01:07:40;17.50;99.90
37240;DHT22;23130;48.760;9.178;2022-07-29T01:10:09;17.50;99.90
37240;DHT22;23130;48.760;9.178;2022-07-29T01:12:35;17.50;99.90
37240;DHT22;23130;48.760;9.178;2022-07-29T01:15:04;17.50;99.90
37240;DHT22;23130;48.760;9.178;2022-07-29T01:29:16;17.40;99.90
37240;DHT22;23130;48.760;9.178;2022-07-29T01:32:10;17.40;99.90
37240;DHT22;23130;48.760;9.178;2022-07-29T01:37:36;17.30;99.90
37240;DHT22;23130;48.760;9.178;2022-07-29T01:40:05;17.20;99.90
37240;DHT22;23130;48.760;9.178;2022-07-29T01:42:44;17.20;99.90
37240;DHT22;23130;48.760;9.178;2022-07-29T01:45:34;17.10;99.90
37240;DHT22;23130;48.760;9.178;2022-07-29T01:48:06;17.10;99.90
37240;DHT22;23130;48.760;9.178;2022-07-29T01:50:46;17.10;99.90
37240;DHT22;23130;48.760;9.178;2022-07-29T01:53:13;17.10;99.90
37240;DHT22;23130;48.760;9.178;2022-07-29T01:55:43;17.00;99.90
37240;DHT22;23130;48.760;9.178;2022-07-29T01:58:11;17.00;99.90
37240;DHT22;23130;48.760;9.178;2022-07-29T02:00:38;17.10;99.90
37240;DHT22;23130;48.760;9.178;2022-07-29T02:03:09;17.00;99.90
37240;DHT22;23130;48.760;9.178;2022-07-29T02:05:37;17.00;99.90
37240;DHT22;23130;48.760;9.178;2022-07-29T02:08:05;16.90;99.90
37240;DHT22;23130;48.760;9.178;2022-07-29T02:10:33;16.90;99.90
37240;DHT22;23130;48.760;9.178;2022-07-29T02:13:01;16.90;99.90
37240;DHT22;23130;48.760;9.178;2022-07-29T02:15:29;16.90;99.90
37240;DHT22;23130;48.760;9.178;2022-07-29T02:18:02;16.80;99.90
37240;DHT22;23130;48.760;9.178;2022-07-29T02:20:29;16.80;99.90
37240;DHT22;23130;48.760;9.178;2022-07-29T02:22:55;16.90;99.90
37240;DHT22;23130;48.760;9.178;2022-07-29T02:25:24;16.90;99.90
37240;DHT22;23130;48.760;9.178;2022-07-29T02:27:51;16.90;99.90
37240;DHT22;23130;48.760;9.178;2022-07-29T02:30:19;16.90;99.90
37240;DHT22;23130;48.760;9.178;2022-07-29T02:32:46;17.00;99.90
37240;DHT22;23130;48.760;9.178;2022-07-29T02:35:15;17.00;99.90
37240;DHT22;23130;48.760;9.178;2022-07-29T02:37:43;17.10;99.90
37240;DHT22;23130;48.760;9.178;2022-07-29T02:40:12;17.10;99.90
37240;DHT22;23130;48.760;9.178;2022-07-29T02:42:38;17.10;99.90
37240;DHT22;23130;48.760;9.178;2022-07-29T02:45:06;17.10;99.90
37240;DHT22;23130;48.760;9.178;2022-07-29T02:50:15;17.20;99.90
37240;DHT22;23130;48.760;9.178;2022-07-29T02:52:52;17.10;99.90
37240;DHT22;23130;48.760;9.178;2022-07-29T02:55:25;17.00;99.90
37240;DHT22;23130;48.760;9.178;2022-07-29T02:58:01;17.00;99.90
37240;DHT22;23130;48.760;9.178;2022-07-29T03:00:29;16.90;99.90
37240;DHT22;23130;48.760;9.178;2022-07-29T03:02:58;17.00;99.90
37240;DHT22;23130;48.760;9.178;2022-07-29T03:05:26;17.00;99.90
37240;DHT22;23130;48.760;9.178;2022-07-29T03:07:55;16.90;99.90
37240;DHT22;23130;48.760;9.178;2022-07-29T03:10:23;16.90;99.90
37240;DHT22;23130;48.760;9.178;2022-07-29T03:12:50;16.90;99.90
37240;DHT22;23130;48.760;9.178;2022-07-29T03:15:17;16.90;99.90
37240;DHT22;23130;48.760;9.178;2022-07-29T03:17:43;16.90;99.90
37240;DHT22;23130;48.760;9.178;2022-07-29T03:20:10;16.90;99.90
37240;DHT22;23130;48.760;9.178;2022-07-29T03:22:40;16.90;99.90
37240;DHT22;23130;48.760;9.178;2022-07-29T03:25:16;16.90;99.90
37240;DHT22;23130;48.760;9.178;2022-07-29T03:27:42;16.90;99.90
37240;DHT22;23130;48.760;9.178;2022-07-29T03:30:09;16.90;99.90
37240;DHT22;23130;48.760;9.178;2022-07-29T03:32:35;16.90;99.90
37240;DHT22;23130;48.760;9.178;2022-07-29T03:35:01;16.90;99.90
37240;DHT22;23130;48.760;9.178;2022-07-29T03:37:26;16.80;99.90
37240;DHT22;23130;48.760;9.178;2022-07-29T03:39:55;16.80;99.90
37240;DHT22;23130;48.760;9.178;2022-07-29T03:42:22;16.70;99.90
37240;DHT22;23130;48.760;9.178;2022-07-29T03:44:50;16.70;99.90
37240;DHT22;23130;48.760;9.178;2022-07-29T03:47:18;16.80;99.90
37240;DHT22;23130;48.760;9.178;2022-07-29T03:49:48;16.70;99.90
37240;DHT22;23130;48.760;9.178;2022-07-29T03:52:16;16.70;99.90
37240;DHT22;23130;48.760;9.178;2022-07-29T03:54:42;16.80;99.90
37240;DHT22;23130;48.760;9.178;2022-07-29T03:57:10;16.80;99.90
37240;DHT22;23130;48.760;9.178;2022-07-29T03:59:37;16.80;99.90
37240;DHT22;23130;48.760;9.178;2022-07-29T04:02:04;16.80;99.90
37240;DHT22;23130;48.760;9.178;2022-07-29T04:04:33;16.80;99.90
37240;DHT22;23130;48.760;9.178;2022-07-29T04:06:58;16.80;99.90
37240;DHT22;23130;48.760;9.178;2022-07-29T04:09:24;16.90;99.90
37240;DHT22;23130;48.760;9.178;2022-07-29T04:11:50;16.90;99.90
37240;DHT22;23130;48.760;9.178;2022-07-29T04:14:15;16.90;99.90
37240;DHT22;23130;48.760;9.178;2022-07-29T04:16:41;16.90;99.90
37240;DHT22;23130;48.760;9.178;2022-07-29T04:19:06;16.90;99.90
37240;DHT22;23130;48.760;9.178;2022-07-29T04:21:40;17.00;99.90
37240;DHT22;23130;48.760;9.178;2022-07-29T04:24:06;17.10;99.90
37240;DHT22;23130;48.760;9.178;2022-07-29T04:26:32;17.20;99.90
37240;DHT22;23130;48.760;9.178;2022-07-29T04:28:58;17.30;99.90
37240;DHT22;23130;48.760;9.178;2022-07-29T04:31:23;17.30;99.90
37240;DHT22;23130;48.760;9.178;2022-07-29T04:33:49;17.30;99.90
37240;DHT22;23130;48.760;9.178;2022-07-29T04:36:15;17.40;99.90
37240;DHT22;23130;48.760;9.178;2022-07-29T04:38:40;17.40;99.90
37240;DHT22;23130;48.760;9.178;2022-07-29T04:41:06;17.40;99.90
37240;DHT22;23130;48.760;9.178;2022-07-29T04:43:34;17.50;99.90
37240;DHT22;23130;48.760;9.178;2022-07-29T04:46:00;17.60;99.90
37240;DHT22;23130;48.760;9.178;2022-07-29T04:48:26;17.60;99.90
37240;DHT22;23130;48.760;9.178;2022-07-29T04:50:51;17.70;99.90
37240;DHT22;23130;48.760;9.178;2022-07-29T04:53:17;17.80;99.90
37240;DHT22;23130;48.760;9.178;2022-07-29T04:55:43;18.40;99.90
37240;DHT22;23130;48.760;9.178;2022-07-29T04:58:10;19.30;99.90
37240;DHT22;23130;48.760;9.178;2022-07-29T05:00:36;20.20;99.90
37240;DHT22;23130;48.760;9.178;2022-07-29T05:03:01;21.10;99.90
37240;DHT22;23130;48.760;9.178;2022-07-29T05:05:27;21.90;99.90
37240;DHT22;23130;48.760;9.178;2022-07-29T05:07:52;22.60;99.90
37240;DHT22;23130;48.760;9.178;2022-07-29T05:10:18;23.20;99.90
37240;DHT22;23130;48.760;9.178;2022-07-29T05:12:44;23.10;99.90
37240;DHT22;23130;48.760;9.178;2022-07-29T05:15:10;23.30;99.90
37240;DHT22;23130;48.760;9.178;2022-07-29T05:17:35;23.60;99.90
37240;DHT22;23130;48.760;9.178;2022-07-29T05:20:01;23.90;99.90
37240;DHT22;23130;48.760;9.178;2022-07-29T05:22:26;24.20;99.90
37240;DHT22;23130;48.760;9.178;2022-07-29T05:24:52;24.50;99.90
37240;DHT22;23130;48.760;9.178;2022-07-29T05:27:17;24.40;99.90
37240;DHT22;23130;48.760;9.178;2022-07-29T05:29:43;24.30;99.90
37240;DHT22;23130;48.760;9.178;2022-07-29T05:32:09;24.40;99.90
37240;DHT22;23130;48.760;9.178;2022-07-29T05:34:35;24.10;99.90
37240;DHT22;23130;48.760;9.178;2022-07-29T05:37:00;24.00;99.90
37240;DHT22;23130;48.760;9.178;2022-07-29T05:39:26;24.60;99.90
37240;DHT22;23130;48.760;9.178;2022-07-29T05:41:51;25.10;99.90
37240;DHT22;23130;48.760;9.178;2022-07-29T05:44:17;25.50;99.90
37240;DHT22;23130;48.760;9.178;2022-07-29T05:46:42;25.30;99.90
37240;DHT22;23130;48.760;9.178;2022-07-29T05:49:08;25.30;99.90
37240;DHT22;23130;48.760;9.178;2022-07-29T05:51:34;25.40;99.90
37240;DHT22;23130;48.760;9.178;2022-07-29T05:54:00;25.90;99.90
37240;DHT22;23130;48.760;9.178;2022-07-29T05:56:25;26.10;99.90
37240;DHT22;23130;48.760;9.178;2022-07-29T05:58:51;26.00;99.90
37240;DHT22;23130;48.760;9.178;2022-07-29T06:01:17;26.00;99.90
37240;DHT22;23130;48.760;9.178;2022-07-29T06:03:43;26.40;99.90
37240;DHT22;23130;48.760;9.178;2022-07-29T06:06:09;27.10;99.90
37240;DHT22;23130;48.760;9.178;2022-07-29T06:08:35;27.80;99.90
37240;DHT22;23130;48.760;9.178;2022-07-29T06:11:02;27.80;99.90
37240;DHT22;23130;48.760;9.178;2022-07-29T06:13:27;28.40;99.90
37240;DHT22;23130;48.760;9.178;2022-07-29T06:15:53;28.30;99.90
37240;DHT22;23130;48.760;9.178;2022-07-29T06:18:19;28.80;99.90
37240;DHT22;23130;48.760;9.178;2022-07-29T06:20:46;28.30;99.90
37240;DHT22;23130;48.760;9.178;2022-07-29T06:23:11;28.90;99.90
37240;DHT22;23130;48.760;9.178;2022-07-29T06:25:39;29.50;99.90
37240;DHT22;23130;48.760;9.178;2022-07-29T06:28:05;30.30;99.30
37240;DHT22;23130;48.760;9.178;2022-07-29T06:30:30;30.40;99.00
37240;DHT22;23130;48.760;9.178;2022-07-29T06:32:56;30.40;98.70
37240;DHT22;23130;48.760;9.178;2022-07-29T06:35:21;30.60;98.20
37240;DHT22;23130;48.760;9.178;2022-07-29T06:37:47;30.70;97.80
37240;DHT22;23130;48.760;9.178;2022-07-29T06:40:13;30.90;97.30
37240;DHT22;23130;48.760;9.178;2022-07-29T06:42:57;31.10;96.70
37240;DHT22;23130;48.760;9.178;2022-07-29T06:45:22;30.90;97.30
37240;DHT22;23130;48.760;9.178;2022-07-29T06:47:49;31.20;96.50
37240;DHT22;23130;48.760;9.178;2022-07-29T06:50:15;31.30;96.40
37240;DHT22;23130;48.760;9.178;2022-07-29T06:52:41;31.10;96.40
37240;DHT22;23130;48.760;9.178;2022-07-29T06:55:07;30.70;96.70
37240;DHT22;23130;48.760;9.178;2022-07-29T06:57:33;29.90;97.90
37240;DHT22;23130;48.760;9.178;2022-07-29T06:59:59;29.50;98.20
37240;DHT22;23130;48.760;9.178;2022-07-29T07:02:25;29.40;99.10
37240;DHT22;23130;48.760;9.178;2022-07-29T07:04:51;29.70;98.50
37240;DHT22;23130;48.760;9.178;2022-07-29T07:07:16;30.60;97.90
37240;DHT22;23130;48.760;9.178;2022-07-29T07:09:42;30.70;97.10
37240;DHT22;23130;48.760;9.178;2022-07-29T07:12:08;30.60;97.00
37240;DHT22;23130;48.760;9.178;2022-07-29T07:14:33;30.50;97.10
37240;DHT22;23130;48.760;9.178;2022-07-29T07:16:59;30.80;96.50
37240;DHT22;23130;48.760;9.178;2022-07-29T07:19:26;30.80;96.60
37240;DHT22;23130;48.760;9.178;2022-07-29T07:21:52;30.60;96.80
37240;DHT22;23130;48.760;9.178;2022-07-29T07:24:18;31.10;96.30
37240;DHT22;23130;48.760;9.178;2022-07-29T07:26:44;30.70;96.40
37240;DHT22;23130;48.760;9.178;2022-07-29T07:29:10;30.40;97.40
37240;DHT22;23130;48.760;9.178;2022-07-29T07:31:37;30.30;97.40
37240;DHT22;23130;48.760;9.178;2022-07-29T07:34:03;29.60;97.80
37240;DHT22;23130;48.760;9.178;2022-07-29T07:36:29;29.50;98.30
37240;DHT22;23130;48.760;9.178;2022-07-29T07:38:54;29.30;98.60
37240;DHT22;23130;48.760;9.178;2022-07-29T07:41:21;29.60;98.30
37240;DHT22;23130;48.760;9.178;2022-07-29T07:43:47;28.90;98.80
37240;DHT22;23130;48.760;9.178;2022-07-29T07:46:13;28.30;99.70
37240;DHT22;23130;48.760;9.178;2022-07-29T07:48:39;28.70;99.30
37240;DHT22;23130;48.760;9.178;2022-07-29T07:51:04;29.30;98.60
37240;DHT22;23130;48.760;9.178;2022-07-29T07:53:30;29.70;98.30
37240;DHT22;23130;48.760;9.178;2022-07-29T07:55:55;30.20;97.00
37240;DHT22;23130;48.760;9.178;2022-07-29T07:58:21;30.40;97.40
37240;DHT22;23130;48.760;9.178;2022-07-29T08:00:47;30.60;95.90
37240;DHT22;23130;48.760;9.178;2022-07-29T08:03:13;30.10;96.10
37240;DHT22;23130;48.760;9.178;2022-07-29T08:05:39;29.60;96.90
37240;DHT22;23130;48.760;9.178;2022-07-29T08:08:05;29.70;97.20
37240;DHT22;23130;48.760;9.178;2022-07-29T08:10:31;30.00;97.10
37240;DHT22;23130;48.760;9.178;2022-07-29T08:13:15;30.10;96.90
37240;DHT22;23130;48.760;9.178;2022-07-29T08:15:41;30.70;96.00
37240;DHT22;23130;48.760;9.178;2022-07-29T08:18:08;30.30;95.20
37240;DHT22;23130;48.760;9.178;2022-07-29T08:20:34;30.30;95.10
37240;DHT22;23130;48.760;9.178;2022-07-29T08:23:01;30.30;94.50
37240;DHT22;23130;48.760;9.178;2022-07-29T08:25:27;29.60;95.90
37240;DHT22;23130;48.760;9.178;2022-07-29T08:27:53;29.50;95.70
37240;DHT22;23130;48.760;9.178;2022-07-29T08:30:18;29.40;96.10
37240;DHT22;23130;48.760;9.178;2022-07-29T08:32:44;29.10;96.70
37240;DHT22;23130;48.760;9.178;2022-07-29T08:35:09;28.70;97.00
37240;DHT22;23130;48.760;9.178;2022-07-29T08:37:35;28.40;95.90
37240;DHT22;23130;48.760;9.178;2022-07-29T08:40:01;28.20;95.80
37240;DHT22;23130;48.760;9.178;2022-07-29T08:42:26;28.00;96.40
37240;DHT22;23130;48.760;9.178;2022-07-29T08:44:52;27.70;96.00
37240;DHT22;23130;48.760;9.178;2022-07-29T08:47:19;27.30;95.70
37240;DHT22;23130;48.760;9.178;2022-07-29T08:49:44;27.10;96.10
37240;DHT22;23130;48.760;9.178;2022-07-29T08:52:12;27.10;97.10
37240;DHT22;23130;48.760;9.178;2022-07-29T08:54:40;27.20;97.00
37240;DHT22;23130;48.760;9.178;2022-07-29T08:57:09;27.10;97.10
37240;DHT22;23130;48.760;9.178;2022-07-29T08:59:35;27.00;98.00
37240;DHT22;23130;48.760;9.178;2022-07-29T09:02:03;26.90;98.70
37240;DHT22;23130;48.760;9.178;2022-07-29T09:04:34;27.10;98.80
37240;DHT22;23130;48.760;9.178;2022-07-29T09:07:01;27.40;99.40
37240;DHT22;23130;48.760;9.178;2022-07-29T09:09:29;27.60;98.20
37240;DHT22;23130;48.760;9.178;2022-07-29T09:11:54;27.40;97.50
37240;DHT22;23130;48.760;9.178;2022-07-29T09:14:20;27.30;97.60
37240;DHT22;23130;48.760;9.178;2022-07-29T09:16:52;27.10;97.60
37240;DHT22;23130;48.760;9.178;2022-07-29T09:21:49;27.00;97.30
37240;DHT22;23130;48.760;9.178;2022-07-29T09:26:52;27.20;97.20
37240;DHT22;23130;48.760;9.178;2022-07-29T09:29:20;27.20;96.70
37240;DHT22;23130;48.760;9.178;2022-07-29T09:31:48;27.10;96.80
37240;DHT22;23130;48.760;9.178;2022-07-29T09:34:16;27.20;97.30
37240;DHT22;23130;48.760;9.178;2022-07-29T09:36:44;27.40;97.00
37240;DHT22;23130;48.760;9.178;2022-07-29T09:39:10;27.60;96.00
37240;DHT22;23130;48.760;9.178;2022-07-29T09:41:51;27.60;96.40
37240;DHT22;23130;48.760;9.178;2022-07-29T09:44:18;27.80;95.60
37240;DHT22;23130;48.760;9.178;2022-07-29T09:47:00;27.90;95.60
37240;DHT22;23130;48.760;9.178;2022-07-29T09:49:33;28.20;94.30
37240;DHT22;23130;48.760;9.178;2022-07-29T09:52:07;28.40;94.00
37240;DHT22;23130;48.760;9.178;2022-07-29T09:54:33;28.20;94.50
37240;DHT22;23130;48.760;9.178;2022-07-29T09:57:08;28.10;94.20
37240;DHT22;23130;48.760;9.178;2022-07-29T09:59:38;28.30;93.90
37240;DHT22;23130;48.760;9.178;2022-07-29T10:02:14;28.60;93.40
37240;DHT22;23130;48.760;9.178;2022-07-29T10:04:40;28.90;93.10
37240;DHT22;23130;48.760;9.178;2022-07-29T10:07:06;29.10;93.50
37240;DHT22;23130;48.760;9.178;2022-07-29T10:09:33;29.30;94.00
37240;DHT22;23130;48.760;9.178;2022-07-29T10:12:12;29.20;93.10
37240;DHT22;23130;48.760;9.178;2022-07-29T10:14:41;29.10;93.50
37240;DHT22;23130;48.760;9.178;2022-07-29T10:17:08;29.00;93.20
37240;DHT22;23130;48.760;9.178;2022-07-29T10:19:36;29.00;92.90
37240;DHT22;23130;48.760;9.178;2022-07-29T10:22:04;28.90;93.40
37240;DHT22;23130;48.760;9.178;2022-07-29T10:24:31;28.60;93.60
37240;DHT22;23130;48.760;9.178;2022-07-29T10:26:59;28.50;93.00
37240;DHT22;23130;48.760;9.178;2022-07-29T10:29:25;28.30;92.90
37240;DHT22;23130;48.760;9.178;2022-07-29T10:32:15;28.00;93.40
37240;DHT22;23130;48.760;9.178;2022-07-29T10:35:11;27.70;94.10
37240;DHT22;23130;48.760;9.178;2022-07-29T10:38:10;27.40;94.10
37240;DHT22;23130;48.760;9.178;2022-07-29T10:41:03;27.00;94.80
37240;DHT22;23130;48.760;9.178;2022-07-29T10:43:51;26.60;96.80
37240;DHT22;23130;48.760;9.178;2022-07-29T10:46:17;26.10;98.90
37240;DHT22;23130;48.760;9.178;2022-07-29T10:49:15;25.50;99.90
37240;DHT22;23130;48.760;9.178;2022-07-29T10:57:30;21.20;99.90
37240;DHT22;23130;48.760;9.178;2022-07-29T11:05:20;18.10;99.90
37240;DHT22;23130;48.760;9.178;2022-07-29T11:08:17;17.80;99.90
37240;DHT22;23130;48.760;9.178;2022-07-29T11:10:50;17.70;99.90
37240;DHT22;23130;48.760;9.178;2022-07-29T11:16:09;17.80;99.90
37240;DHT22;23130;48.760;9.178;2022-07-29T11:18:34;17.90;99.90
37240;DHT22;23130;48.760;9.178;2022-07-29T11:21:00;18.10;99.90
37240;DHT22;23130;48.760;9.178;2022-07-29T11:23:32;18.00;99.90
37240;DHT22;23130;48.760;9.178;2022-07-29T11:26:17;18.00;99.90
37240;DHT22;23130;48.760;9.178;2022-07-29T11:39:40;18.40;99.90
37240;DHT22;23130;48.760;9.178;2022-07-29T11:50:03;19.10;99.90
37240;DHT22;23130;48.760;9.178;2022-07-29T11:52:51;19.20;99.90
37240;DHT22;23130;48.760;9.178;2022-07-29T11:55:19;19.30;99.90
37240;DHT22;23130;48.760;9.178;2022-07-29T12:00:23;19.10;99.90
37240;DHT22;23130;48.760;9.178;2022-07-29T12:02:48;19.10;99.90
37240;DHT22;23130;48.760;9.178;2022-07-29T12:05:14;19.00;99.90
37240;DHT22;23130;48.760;9.178;2022-07-29T12:07:40;19.10;99.90
37240;DHT22;23130;48.760;9.178;2022-07-29T12:10:08;19.30;99.90
37240;DHT22;23130;48.760;9.178;2022-07-29T12:12:34;19.50;99.90
37240;DHT22;23130;48.760;9.178;2022-07-29T12:15:14;19.50;99.90
37240;DHT22;23130;48.760;9.178;2022-07-29T12:17:40;19.60;99.90
37240;DHT22;23130;48.760;9.178;2022-07-29T12:20:07;19.70;99.90
37240;DHT22;23130;48.760;9.178;2022-07-29T12:22:38;19.70;99.90
37240;DHT22;23130;48.760;9.178;2022-07-29T12:25:09;19.80;99.90
37240;DHT22;23130;48.760;9.178;2022-07-29T12:27:36;19.80;99.90
37240;DHT22;23130;48.760;9.178;2022-07-29T12:30:06;19.90;99.90
37240;DHT22;23130;48.760;9.178;2022-07-29T12:32:37;19.90;99.90
37240;DHT22;23130;48.760;9.178;2022-07-29T12:35:05;20.00;99.90
37240;DHT22;23130;48.760;9.178;2022-07-29T12:37:36;20.00;99.90
37240;DHT22;23130;48.760;9.178;2022-07-29T12:40:03;20.00;99.90
37240;DHT22;23130;48.760;9.178;2022-07-29T12:42:30;20.00;99.90
37240;DHT22;23130;48.760;9.178;2022-07-29T12:44:56;20.00;99.90
37240;DHT22;23130;48.760;9.178;2022-07-29T12:47:22;20.00;99.90
37240;DHT22;23130;48.760;9.178;2022-07-29T12:49:48;20.00;99.90
37240;DHT22;23130;48.760;9.178;2022-07-29T12:52:30;19.90;99.90
37240;DHT22;23130;48.760;9.178;2022-07-29T12:54:56;19.70;99.90
37240;DHT22;23130;48.760;9.178;2022-07-29T12:57:21;19.60;99.90
37240;DHT22;23130;48.760;9.178;2022-07-29T13:00:07;19.50;99.90
37240;DHT22;23130;48.760;9.178;2022-07-29T13:02:35;19.40;99.90
37240;DHT22;23130;48.760;9.178;2022-07-29T13:05:01;19.30;99.90
37240;DHT22;23130;48.760;9.178;2022-07-29T13:07:30;19.40;99.90
37240;DHT22;23130;48.760;9.178;2022-07-29T13:10:35;19.40;99.90
37240;DHT22;23130;48.760;9.178;2022-07-29T13:13:05;19.40;99.90
37240;DHT22;23130;48.760;9.178;2022-07-29T13:15:33;19.40;99.90
37240;DHT22;23130;48.760;9.178;2022-07-29T13:17:59;19.50;99.90
37240;DHT22;23130;48.760;9.178;2022-07-29T13:20:27;19.30;99.90
37240;DHT22;23130;48.760;9.178;2022-07-29T13:22:58;19.20;99.90
37240;DHT22;23130;48.760;9.178;2022-07-29T13:25:30;19.10;99.90
37240;DHT22;23130;48.760;9.178;2022-07-29T13:27:57;19.00;99.90
37240;DHT22;23130;48.760;9.178;2022-07-29T13:30:23;18.90;99.90
37240;DHT22;23130;48.760;9.178;2022-07-29T13:32:49;18.80;99.90
37240;DHT22;23130;48.760;9.178;2022-07-29T13:35:15;18.80;99.90
37240;DHT22;23130;48.760;9.178;2022-07-29T13:37:41;18.80;99.90
37240;DHT22;23130;48.760;9.178;2022-07-29T13:40:07;18.80;99.90
37240;DHT22;23130;48.760;9.178;2022-07-29T13:42:34;18.90;99.90
37240;DHT22;23130;48.760;9.178;2022-07-29T13:45:00;19.00;99.90
37240;DHT22;23130;48.760;9.178;2022-07-29T13:47:27;19.10;99.90
37240;DHT22;23130;48.760;9.178;2022-07-29T13:49:54;19.30;99.90
37240;DHT22;23130;48.760;9.178;2022-07-29T13:52:20;19.50;99.90
37240;DHT22;23130;48.760;9.178;2022-07-29T13:54:46;19.60;99.90
37240;DHT22;23130;48.760;9.178;2022-07-29T13:57:12;19.90;99.90
37240;DHT22;23130;48.760;9.178;2022-07-29T13:59:39;20.10;99.90
37240;DHT22;23130;48.760;9.178;2022-07-29T14:02:05;20.40;99.90
37240;DHT22;23130;48.760;9.178;2022-07-29T14:04:31;20.70;99.90
37240;DHT22;23130;48.760;9.178;2022-07-29T14:06:57;21.10;99.90
37240;DHT22;23130;48.760;9.178;2022-07-29T14:09:22;21.50;99.90
37240;DHT22;23130;48.760;9.178;2022-07-29T14:11:48;21.70;99.90
37240;DHT22;23130;48.760;9.178;2022-07-29T14:14:16;21.90;99.90
37240;DHT22;23130;48.760;9.178;2022-07-29T14:16:41;22.10;99.90
37240;DHT22;23130;48.760;9.178;2022-07-29T14:19:07;22.10;99.90
37240;DHT22;23130;48.760;9.178;2022-07-29T14:21:32;22.30;99.90
37240;DHT22;23130;48.760;9.178;2022-07-29T14:23:58;22.40;99.90
37240;DHT22;23130;48.760;9.178;2022-07-29T14:26:23;22.40;99.90
37240;DHT22;23130;48.760;9.178;2022-07-29T14:28:49;22.50;99.90
37240;DHT22;23130;48.760;9.178;2022-07-29T14:31:15;22.70;99.90
37240;DHT22;23130;48.760;9.178;2022-07-29T14:33:41;22.70;99.90
37240;DHT22;23130;48.760;9.178;2022-07-29T14:36:07;22.70;99.90
37240;DHT22;23130;48.760;9.178;2022-07-29T14:38:34;22.70;99.90
37240;DHT22;23130;48.760;9.178;2022-07-29T14:41:00;22.80;99.90
37240;DHT22;23130;48.760;9.178;2022-07-29T14:43:26;23.10;99.90
37240;DHT22;23130;48.760;9.178;2022-07-29T14:45:51;23.10;99.90
37240;DHT22;23130;48.760;9.178;2022-07-29T14:48:17;23.30;99.90
37240;DHT22;23130;48.760;9.178;2022-07-29T14:50:42;23.30;99.90
37240;DHT22;23130;48.760;9.178;2022-07-29T14:53:08;23.30;99.90
37240;DHT22;23130;48.760;9.178;2022-07-29T14:55:34;23.50;99.90
37240;DHT22;23130;48.760;9.178;2022-07-29T14:58:00;23.60;99.90
37240;DHT22;23130;48.760;9.178;2022-07-29T15:00:27;23.50;99.90
37240;DHT22;23130;48.760;9.178;2022-07-29T15:02:52;23.40;99.90
37240;DHT22;23130;48.760;9.178;2022-07-29T15:05:18;23.50;99.90
37240;DHT22;23130;48.760;9.178;2022-07-29T15:07:43;23.70;99.90
37240;DHT22;23130;48.760;9.178;2022-07-29T15:10:09;23.50;99.90
37240;DHT22;23130;48.760;9.178;2022-07-29T15:12:35;23.50;99.90
37240;DHT22;23130;48.760;9.178;2022-07-29T15:15:00;23.60;99.90
37240;DHT22;23130;48.760;9.178;2022-07-29T15:17:26;23.60;99.90
37240;DHT22;23130;48.760;9.178;2022-07-29T15:19:52;23.50;99.90
37240;DHT22;23130;48.760;9.178;2022-07-29T15:22:17;23.60;99.90
37240;DHT22;23130;48.760;9.178;2022-07-29T15:24:43;23.60;99.90
37240;DHT22;23130;48.760;9.178;2022-07-29T15:27:09;23.70;99.90
37240;DHT22;23130;48.760;9.178;2022-07-29T15:29:40;23.50;99.90
37240;DHT22;23130;48.760;9.178;2022-07-29T15:32:06;23.50;99.90
37240;DHT22;23130;48.760;9.178;2022-07-29T15:34:32;23.40;99.90
37240;DHT22;23130;48.760;9.178;2022-07-29T15:36:57;23.40;99.90
37240;DHT22;23130;48.760;9.178;2022-07-29T15:39:23;23.50;99.90
37240;DHT22;23130;48.760;9.178;2022-07-29T15:41:49;23.50;99.90
37240;DHT22;23130;48.760;9.178;2022-07-29T15:44:15;23.40;99.90
37240;DHT22;23130;48.760;9.178;2022-07-29T15:46:40;23.40;99.90
37240;DHT22;23130;48.760;9.178;2022-07-29T15:49:24;23.30;99.90
37240;DHT22;23130;48.760;9.178;2022-07-29T15:52:03;23.30;99.90
37240;DHT22;23130;48.760;9.178;2022-07-29T15:54:32;23.40;99.90
37240;DHT22;23130;48.760;9.178;2022-07-29T15:56:57;23.40;99.90
37240;DHT22;23130;48.760;9.178;2022-07-29T15:59:23;23.40;99.90
37240;DHT22;23130;48.760;9.178;2022-07-29T16:01:49;23.40;99.90
37240;DHT22;23130;48.760;9.178;2022-07-29T16:04:15;23.40;99.90
37240;DHT22;23130;48.760;9.178;2022-07-29T16:06:42;23.40;99.90
37240;DHT22;23130;48.760;9.178;2022-07-29T16:09:08;23.30;99.90
37240;DHT22;23130;48.760;9.178;2022-07-29T16:11:33;23.30;99.90
37240;DHT22;23130;48.760;9.178;2022-07-29T16:13:59;23.30;99.90
37240;DHT22;23130;48.760;9.178;2022-07-29T16:16:25;23.30;99.90
37240;DHT22;23130;48.760;9.178;2022-07-29T16:18:50;23.30;99.90
37240;DHT22;23130;48.760;9.178;2022-07-29T16:21:16;23.40;99.90
37240;DHT22;23130;48.760;9.178;2022-07-29T16:23:41;23.30;99.90
37240;DHT22;23130;48.760;9.178;2022-07-29T16:26:07;23.30;99.90
37240;DHT22;23130;48.760;9.178;2022-07-29T16:28:33;23.20;99.90
37240;DHT22;23130;48.760;9.178;2022-07-29T16:30:59;23.10;99.90
37240;DHT22;23130;48.760;9.178;2022-07-29T16:33:24;23.10;99.90